Terminal Aerodrome Forecast
Issued by NWS Albany, NY

Home | Current Version | Previous Version | Text Only | Print | Product List | Glossary On
Versions: 1 2 3 4 5 6 7 8 9 10 11 12 13 14 15 16 17 18
000
FTUS41 KALY 231700
TAFALB
TAF
KALB 231720Z 2318/2418 16007KT P6SM BKN040 BKN100
     FM231900 19006KT P6SM VCSH OVC040
     FM240000 VRB03KT P6SM OVC035
     FM240300 VRB03KT P6SM VCSH OVC035
     FM240600 16003KT 5SM -SHRA BR OVC030
     FM241000 19005KT 3SM -RA BR SCT008 OVC015=

USA.gov is the U.S. government's official web portal to all federal, state and local government web resources and services.